Time;durP1;ratioP1;P1;durP2;ratioP2;P2;SDS_P1;SDS_P2;PMS_P1;PMS_P2;Temp;Humidity;BMP_temperature;BMP_pressure;BME280_temperature;BME280_humidity;BME280_pressure;Samples;Min_cycle;Max_cycle;Signal;HPM_P1;HPM_P2
2023/07/17 00:00:13;;;;;;;9.60;6.50;;;;;;;21.46;100.00;101039.14;107186;1256;70503;-71
2023/07/17 00:03:01;;;;;;;9.70;6.60;;;;;;;21.42;100.00;101035.95;107059;1255;75379;-70
2023/07/17 00:05:30;;;;;;;10.20;6.30;;;;;;;21.39;100.00;101032.85;107120;1244;62048;-70
2023/07/17 00:08:00;;;;;;;10.10;6.60;;;;;;;21.30;100.00;101029.17;107036;1245;60513;-71
2023/07/17 00:10:29;;;;;;;10.50;6.10;;;;;;;21.26;100.00;101028.91;107138;1255;73362;-69
2023/07/17 00:12:58;;;;;;;7.90;6.40;;;;;;;21.21;100.00;101028.82;106983;1244;72171;-70
2023/07/17 00:15:26;;;;;;;8.90;6.30;;;;;;;21.16;100.00;101028.48;107228;1245;71086;-70
2023/07/17 00:17:55;;;;;;;8.50;6.70;;;;;;;21.12;100.00;101031.40;106996;1244;73782;-71
2023/07/17 00:20:24;;;;;;;8.10;6.50;;;;;;;21.06;100.00;101027.88;107078;1245;63096;-71
2023/07/17 00:22:54;;;;;;;8.00;6.10;;;;;;;20.98;100.00;101035.27;107077;1245;61105;-71
2023/07/17 00:25:24;;;;;;;10.70;6.80;;;;;;;20.94;100.00;101037.02;107140;1245;73912;-72
2023/07/17 00:27:53;;;;;;;8.70;6.50;;;;;;;20.87;100.00;101038.19;107154;1256;61854;-72
2023/07/17 00:30:24;;;;;;;9.80;6.70;;;;;;;20.81;100.00;101034.98;107266;1246;59733;-73
2023/07/17 00:32:53;;;;;;;11.00;7.20;;;;;;;20.75;100.00;101036.93;107037;1255;72976;-74
2023/07/17 00:35:22;;;;;;;10.70;6.50;;;;;;;20.70;100.00;101032.73;107287;1245;64723;-70
2023/07/17 00:37:52;;;;;;;8.40;6.50;;;;;;;20.64;100.00;101028.05;107243;1245;59041;-71
2023/07/17 00:40:21;;;;;;;12.00;9.60;;;;;;;20.60;100.00;101031.48;107146;1243;63509;-72
2023/07/17 00:42:57;;;;;;;9.10;7.20;;;;;;;20.52;100.00;101028.48;107127;1255;73130;-70
2023/07/17 00:45:31;;;;;;;14.50;7.20;;;;;;;20.51;100.00;101027.05;106837;1246;427290;-70
2023/07/17 00:48:01;;;;;;;9.50;7.20;;;;;;;20.47;100.00;101024.77;107134;1245;62812;-70
2023/07/17 00:50:30;;;;;;;10.10;6.20;;;;;;;20.43;100.00;101026.30;107378;1246;57544;-71
2023/07/17 00:53:00;;;;;;;10.30;6.90;;;;;;;20.39;100.00;101020.86;107122;1248;59039;-71
2023/07/17 00:55:31;;;;;;;8.90;6.60;;;;;;;20.38;100.00;101026.44;107168;1251;62701;-72
2023/07/17 00:58:01;;;;;;;8.70;6.30;;;;;;;20.36;100.00;101029.30;107300;1245;61646;-72
2023/07/17 01:00:30;;;;;;;9.60;6.60;;;;;;;20.36;100.00;101030.60;107132;1248;59291;-73
2023/07/17 01:02:59;;;;;;;8.20;6.70;;;;;;;20.34;100.00;101030.73;107085;1255;63197;-71
2023/07/17 01:05:28;;;;;;;11.20;7.10;;;;;;;20.32;100.00;101030.65;107132;1248;62079;-72
2023/07/17 01:07:57;;;;;;;8.80;6.60;;;;;;;20.28;100.00;101034.46;107225;1243;60811;-71
2023/07/17 01:10:27;;;;;;;12.00;6.70;;;;;;;20.23;100.00;101036.72;107107;1256;65023;-71
2023/07/17 01:12:55;;;;;;;10.70;6.80;;;;;;;20.20;100.00;101038.35;107119;1244;71710;-71
2023/07/17 01:15:25;;;;;;;14.00;6.90;;;;;;;20.20;100.00;101040.11;107174;1244;71447;-71
2023/07/17 01:17:55;;;;;;;10.50;6.80;;;;;;;20.21;100.00;101041.27;107412;1248;75578;-72
2023/07/17 01:20:24;;;;;;;9.50;6.50;;;;;;;20.20;100.00;101042.79;107208;1248;63186;-69
2023/07/17 01:23:00;;;;;;;9.40;6.80;;;;;;;20.18;100.00;101044.17;107273;1244;61191;-70
2023/07/17 01:25:29;;;;;;;7.90;6.20;;;;;;;20.16;100.00;101042.30;107272;1245;73338;-70
2023/07/17 01:27:58;;;;;;;7.70;6.30;;;;;;;20.13;100.00;101045.42;107270;1245;62027;-71
2023/07/17 01:30:27;;;;;;;11.50;6.80;;;;;;;20.10;100.00;101045.36;107190;1248;59761;-70
2023/07/17 01:32:57;;;;;;;12.10;7.00;;;;;;;20.08;100.00;101043.49;107306;1245;72414;-70
2023/07/17 01:35:26;;;;;;;10.50;6.60;;;;;;;20.05;100.00;101042.24;107101;1245;62692;-70
2023/07/17 01:37:54;;;;;;;9.60;6.30;;;;;;;20.03;100.00;101043.54;107264;1245;60821;-71
2023/07/17 01:40:23;;;;;;;8.00;6.20;;;;;;;20.02;100.00;101045.80;107241;1246;73701;-71
2023/07/17 01:42:52;;;;;;;10.90;6.20;;;;;;;19.98;100.00;101045.53;107126;1245;72623;-72
2023/07/17 01:45:23;;;;;;;10.60;6.80;;;;;;;19.95;100.00;101049.16;107077;1255;70758;-71
2023/07/17 01:47:52;;;;;;;10.60;6.30;;;;;;;19.93;100.00;101051.19;107271;1245;74280;-71
2023/07/17 01:50:21;;;;;;;10.00;6.70;;;;;;;19.91;100.00;101048.14;107095;1245;63167;-70
2023/07/17 01:52:50;;;;;;;8.30;6.50;;;;;;;19.90;100.00;101048.10;107090;1247;60739;-70
2023/07/17 01:55:19;;;;;;;8.30;6.40;;;;;;;19.86;100.00;101054.72;107281;1246;74119;-71
2023/07/17 01:57:48;;;;;;;10.20;6.60;;;;;;;19.80;100.00;101052.86;107046;1247;72448;-70
2023/07/17 02:00:17;;;;;;;7.10;6.00;;;;;;;19.74;100.00;101051.27;107133;1248;70378;-70
2023/07/17 02:02:46;;;;;;;9.90;6.40;;;;;;;19.70;100.00;101050.93;107145;1244;73663;-71
2023/07/17 02:05:16;;;;;;;9.80;6.90;;;;;;;19.67;100.00;101054.66;107043;1248;64381;-69
2023/07/17 02:07:46;;;;;;;13.00;6.50;;;;;;;19.66;100.00;101059.37;107289;1244;59033;-69
2023/07/17 02:10:15;;;;;;;10.30;6.10;;;;;;;19.62;100.00;101061.52;107210;1256;73453;-71
2023/07/17 02:12:45;;;;;;;9.70;6.10;;;;;;;19.55;100.00;101063.98;107302;1244;73152;-71
2023/07/17 02:15:14;;;;;;;8.30;6.30;;;;;;;19.51;100.00;101065.45;107177;1244;71638;-69
2023/07/17 02:17:43;;;;;;;8.20;6.20;;;;;;;19.50;100.00;101068.69;107078;1255;63675;-70
2023/07/17 02:20:13;;;;;;;8.80;6.30;;;;;;;19.49;100.00;101066.51;107267;1245;59167;-69
2023/07/17 02:22:42;;;;;;;9.50;5.80;;;;;;;19.48;100.00;101060.64;107162;1246;59155;-71
2023/07/17 02:25:12;;;;;;;11.10;6.70;;;;;;;19.48;100.00;101062.03;107259;1243;72777;-70
2023/07/17 02:27:41;;;;;;;10.20;6.40;;;;;;;19.49;100.00;101066.57;107128;1247;72252;-70
2023/07/17 02:30:10;;;;;;;7.30;5.90;;;;;;;19.48;100.00;101069.33;107115;1248;70257;-69
2023/07/17 02:32:39;;;;;;;10.80;6.80;;;;;;;19.46;100.00;101075.20;107158;1246;64467;-70
2023/07/17 02:35:09;;;;;;;7.30;6.30;;;;;;;19.44;100.00;101073.53;107046;1248;59006;-71
2023/07/17 02:37:37;;;;;;;10.40;6.50;;;;;;;19.45;100.00;101072.96;107148;1244;60971;-70
2023/07/17 02:40:10;;;;;;;8.30;6.30;;;;;;;19.47;100.00;101072.10;107292;1244;74715;-69
2023/07/17 02:42:39;;;;;;;10.20;6.20;;;;;;;19.48;100.00;101072.83;107305;1256;64162;-69
2023/07/17 02:45:09;;;;;;;11.00;6.30;;;;;;;19.49;100.00;101070.61;107034;1248;60536;-69
2023/07/17 02:47:38;;;;;;;10.70;6.60;;;;;;;19.51;100.00;101068.80;107232;1254;73649;-68
2023/07/17 02:50:08;;;;;;;7.80;6.20;;;;;;;19.53;100.00;101072.98;107129;1246;58963;-68
2023/07/17 02:52:37;;;;;;;7.50;6.30;;;;;;;19.56;100.00;101075.20;107170;1244;61968;-71
2023/07/17 02:55:07;;;;;;;9.90;6.30;;;;;;;19.58;100.00;101079.05;107306;1243;71961;-72
2023/07/17 02:57:37;;;;;;;8.90;7.00;;;;;;;19.62;100.00;101081.52;107138;1247;60714;-70
2023/07/17 03:00:08;;;;;;;10.90;6.60;;;;;;;19.68;100.00;101080.67;107293;1244;70426;-69
2023/07/17 03:02:40;;;;;;;11.50;6.70;;;;;;;19.76;100.00;101079.80;107098;1252;73461;-71
2023/07/17 03:05:12;;;;;;;9.20;6.10;;;;;;;19.83;100.00;101081.88;107134;1244;58783;-71
2023/07/17 03:07:45;;;;;;;12.30;5.80;;;;;;;19.93;100.00;101082.30;107125;1244;60933;-70
2023/07/17 03:10:14;;;;;;;10.80;5.90;;;;;;;20.01;100.00;101081.95;106964;1245;74180;-71
2023/07/17 03:12:43;;;;;;;8.30;6.40;;;;;;;20.06;100.00;101085.77;107380;1245;62854;-72
2023/07/17 03:15:13;;;;;;;8.10;6.20;;;;;;;20.07;100.00;101089.73;107343;1244;70389;-74
2023/07/17 03:17:42;;;;;;;9.00;5.90;;;;;;;20.05;100.00;101092.95;107149;1247;72910;-72
2023/07/17 03:20:13;;;;;;;10.50;5.90;;;;;;;20.01;100.00;101088.97;107235;1245;59102;-71
2023/07/17 03:22:42;;;;;;;10.20;6.40;;;;;;;20.02;100.00;101091.73;106987;1249;57475;-72
2023/07/17 03:25:11;;;;;;;11.50;6.80;;;;;;;20.03;100.00;101095.84;107227;1255;61996;-72
2023/07/17 03:27:40;;;;;;;11.00;6.60;;;;;;;20.06;100.00;101098.16;107294;1247;61239;-71
2023/07/17 03:30:10;;;;;;;9.20;6.30;;;;;;;20.11;100.00;101101.68;107019;1246;69457;-70
2023/07/17 03:32:39;;;;;;;9.50;5.90;;;;;;;20.16;100.00;101102.59;107069;1245;62593;-72
2023/07/17 03:35:08;;;;;;;7.80;5.90;;;;;;;20.25;100.00;101101.14;106888;1248;62565;-71
2023/07/17 03:37:37;;;;;;;10.70;7.90;;;;;;;20.32;100.00;101107.38;107034;1245;61372;-72
2023/07/17 03:40:08;;;;;;;10.50;8.10;;;;;;;20.41;100.00;101105.17;107048;1244;72717;-72
2023/07/17 03:42:37;;;;;;;10.30;8.00;;;;;;;20.49;100.00;101104.86;107044;1244;71545;-71
2023/07/17 03:45:07;;;;;;;15.60;7.50;;;;;;;20.57;100.00;101103.27;107772;1245;59680;-71
2023/07/17 03:47:37;;;;;;;12.40;7.90;;;;;;;20.67;100.00;101103.67;107018;1245;64152;-71
2023/07/17 03:50:07;;;;;;;12.60;7.80;;;;;;;20.77;100.00;101102.77;106904;1255;59024;-71
2023/07/17 03:52:36;;;;;;;10.20;6.00;;;;;;;20.88;100.00;101104.33;107011;1245;59067;-71
2023/07/17 03:55:06;;;;;;;7.10;5.10;;;;;;;21.02;100.00;101103.18;107107;1255;72825;-71
2023/07/17 03:57:35;;;;;;;10.70;5.60;;;;;;;21.12;100.00;101103.95;107245;1244;61867;-71
2023/07/17 04:00:09;;;;;;;12.60;7.10;;;;;;;21.23;100.00;101108.44;107108;1255;58986;-71
2023/07/17 04:02:43;;;;;;;11.20;6.60;;;;;;;21.34;100.00;101107.11;107089;1256;73609;-71
2023/07/17 04:05:19;;;;;;;13.60;5.80;;;;;;;21.42;100.00;101109.73;107072;1255;63984;-71
2023/07/17 04:07:51;;;;;;;10.00;5.80;;;;;;;21.50;100.00;101114.32;107122;1244;57599;-70
2023/07/17 04:10:20;;;;;;;7.90;5.50;;;;;;;21.53;100.00;101106.90;107085;1245;63390;-70
2023/07/17 04:12:49;;;;;;;10.20;5.70;;;;;;;21.60;100.00;101103.02;107200;1245;60697;-72
2023/07/17 04:15:18;;;;;;;9.50;4.90;;;;;;;21.75;100.00;101113.77;107187;1248;59050;-70
2023/07/17 04:17:47;;;;;;;7.10;4.80;;;;;;;21.85;100.00;101117.37;107248;1244;73827;-70
2023/07/17 04:20:16;;;;;;;8.70;5.10;;;;;;;21.94;100.00;101121.89;107125;1246;58991;-72
2023/07/17 04:22:46;;;;;;;9.60;4.80;;;;;;;22.05;100.00;101125.37;107275;1244;61225;-71
2023/07/17 04:25:15;;;;;;;7.80;5.30;;;;;;;22.13;100.00;101129.11;107340;1248;61966;-71
2023/07/17 04:27:45;;;;;;;7.80;4.90;;;;;;;22.20;100.00;101124.98;107416;1245;61807;-70
2023/07/17 04:30:14;;;;;;;9.20;5.00;;;;;;;22.27;100.00;101126.66;107194;1250;59857;-71
2023/07/17 04:32:43;;;;;;;9.30;5.20;;;;;;;22.35;100.00;101127.30;107230;1244;63035;-70
2023/07/17 04:35:12;;;;;;;9.70;5.00;;;;;;;22.41;100.00;101127.95;107357;1245;61895;-71
2023/07/17 04:37:41;;;;;;;10.40;5.20;;;;;;;22.49;100.00;101129.73;107252;1243;61260;-71
2023/07/17 04:40:12;;;;;;;9.40;5.70;;;;;;;22.59;100.00;101133.23;107226;1245;62833;-71
2023/07/17 04:42:42;;;;;;;6.90;5.10;;;;;;;22.64;100.00;101124.48;107247;1250;72158;-70
2023/07/17 04:45:12;;;;;;;11.10;5.30;;;;;;;22.75;100.00;101134.50;107272;1244;70441;-70
2023/07/17 04:47:42;;;;;;;11.60;5.50;;;;;;;22.81;100.00;101138.67;107127;1245;63593;-70
2023/07/17 04:50:11;;;;;;;9.90;5.60;;;;;;;22.87;100.00;101137.77;107058;1248;59007;-70
2023/07/17 04:52:40;;;;;;;11.30;5.50;;;;;;;22.96;100.00;101135.59;107285;1245;59020;-71
2023/07/17 04:55:09;;;;;;;6.80;4.90;;;;;;;23.07;100.00;101136.45;107050;1247;62906;-70
2023/07/17 04:57:38;;;;;;;12.80;5.50;;;;;;;23.16;100.00;101134.63;107124;1255;61591;-71
2023/07/17 05:00:09;;;;;;;9.20;5.40;;;;;;;23.22;100.00;101131.25;107478;1245;59897;-74
2023/07/17 05:02:38;;;;;;;15.00;6.60;;;;;;;23.29;100.00;101122.63;108124;1245;73019;-75
2023/07/17 05:05:10;;;;;;;13.70;5.30;;;;;;;23.39;100.00;101127.10;108281;1244;58645;-70
2023/07/17 05:07:41;;;;;;;14.50;5.80;;;;;;;23.44;100.00;101129.76;108184;1246;58135;-73
2023/07/17 05:10:11;;;;;;;11.80;5.70;;;;;;;23.50;100.00;101128.20;107732;1244;72728;-72
2023/07/17 05:12:41;;;;;;;11.20;5.60;;;;;;;23.60;100.00;101131.37;108233;1246;71938;-73
2023/07/17 05:15:11;;;;;;;11.50;6.00;;;;;;;23.70;100.00;101135.13;108350;1244;69470;-75
2023/07/17 05:17:40;;;;;;;8.40;5.00;;;;;;;23.84;100.00;101134.61;108351;1245;73339;-72
2023/07/17 05:20:10;;;;;;;13.20;5.10;;;;;;;23.88;100.00;101126.52;108172;1248;58920;-74
2023/07/17 05:22:39;;;;;;;12.90;5.20;;;;;;;24.06;100.00;101144.23;107544;1248;58827;-73
2023/07/17 05:25:08;;;;;;;7.20;5.30;;;;;;;24.17;100.00;101144.44;107415;1247;62956;-74
2023/07/17 05:27:37;;;;;;;9.90;5.00;;;;;;;24.27;100.00;101140.90;107327;1246;60870;-72
2023/07/17 05:30:07;;;;;;;9.40;4.90;;;;;;;24.37;100.00;101141.06;107216;1244;70441;-73
2023/07/17 05:32:35;;;;;;;14.70;5.50;;;;;;;24.43;100.00;101140.78;107398;1244;65373;-73
2023/07/17 05:35:05;;;;;;;11.40;5.40;;;;;;;24.52;100.00;101137.80;107236;1255;57492;-73
2023/07/17 05:37:35;;;;;;;9.70;5.70;;;;;;;24.57;100.00;101136.86;107440;1248;58983;-72
2023/07/17 05:40:06;;;;;;;9.40;5.50;;;;;;;24.64;100.00;101138.42;107431;1253;73443;-72
2023/07/17 05:42:35;;;;;;;12.40;5.60;;;;;;;24.71;99.95;101140.82;107599;1255;72507;-72
2023/07/17 05:45:05;;;;;;;8.80;5.30;;;;;;;24.80;99.98;101139.83;107383;1245;71083;-72
2023/07/17 05:47:33;;;;;;;8.70;5.50;;;;;;;24.92;99.80;101137.78;107426;1247;74695;-73
2023/07/17 05:50:03;;;;;;;8.70;5.50;;;;;;;25.02;99.81;101140.17;107338;1255;60092;-73
2023/07/17 05:52:31;;;;;;;10.00;5.50;;;;;;;25.10;97.83;101140.27;107419;1244;60976;-73
2023/07/17 05:55:02;;;;;;;11.70;5.20;;;;;;;25.19;97.81;101142.43;107395;1247;63333;-73
2023/07/17 05:57:31;;;;;;;17.10;5.80;;;;;;;25.18;97.39;101142.34;107336;1245;63196;-73
2023/07/17 06:00:00;;;;;;;11.50;5.20;;;;;;;25.25;97.25;101142.84;107190;1247;60509;-70
2023/07/17 06:02:44;;;;;;;12.70;5.80;;;;;;;25.33;96.89;101142.64;107192;1256;63592;-71
2023/07/17 06:05:13;;;;;;;14.10;5.90;;;;;;;25.42;95.34;101144.73;107296;1245;58710;-71
2023/07/17 06:07:43;;;;;;;12.60;5.30;;;;;;;25.55;94.82;101146.75;107306;1243;61061;-70
2023/07/17 06:10:12;;;;;;;9.80;5.40;;;;;;;25.60;94.17;101142.73;107414;1245;73204;-70
2023/07/17 06:12:42;;;;;;;11.40;5.80;;;;;;;25.72;93.51;101144.44;107273;1245;71714;-71
2023/07/17 06:15:13;;;;;;;12.50;7.00;;;;;;;25.82;92.91;101148.48;107249;1244;70293;-70
2023/07/17 06:17:42;;;;;;;12.00;5.80;;;;;;;25.90;91.67;101141.35;107255;1248;63491;-74
2023/07/17 06:20:12;;;;;;;10.90;5.90;;;;;;;26.00;91.26;101142.38;107160;1245;58957;-73
2023/07/17 06:22:41;;;;;;;9.10;5.50;;;;;;;26.07;90.40;101145.39;107104;1245;60428;-69
2023/07/17 06:25:10;;;;;;;14.10;7.70;;;;;;;26.21;89.65;101145.43;107003;1247;62958;-72
2023/07/17 06:27:39;;;;;;;11.80;6.30;;;;;;;26.39;89.36;101145.18;107112;1243;62764;-72
2023/07/17 06:30:10;;;;;;;10.30;6.70;;;;;;;26.57;88.85;101143.19;107140;1244;71945;-73
2023/07/17 06:32:41;;;;;;;14.50;6.10;;;;;;;26.63;85.92;101142.38;107134;1246;64558;-72
2023/07/17 06:35:10;;;;;;;14.20;6.00;;;;;;;26.78;85.98;101140.39;107182;1246;58905;-72
2023/07/17 06:37:40;;;;;;;13.10;7.70;;;;;;;26.88;84.76;101141.66;106869;1249;58969;-73
2023/07/17 06:40:10;;;;;;;9.70;5.80;;;;;;;27.03;84.72;101142.20;107109;1256;62501;-71
2023/07/17 06:42:39;;;;;;;11.20;6.70;;;;;;;27.24;80.64;101145.22;107138;1252;72135;-74
2023/07/17 06:45:09;;;;;;;13.00;6.20;;;;;;;27.45;77.19;101146.98;107282;1245;62071;-74
2023/07/17 06:47:38;;;;;;;11.00;5.40;;;;;;;27.52;74.71;101143.64;107253;1245;73478;-73
2023/07/17 06:50:09;;;;;;;9.40;5.30;;;;;;;27.56;73.85;101144.91;107104;1249;57545;-73
2023/07/17 06:52:38;;;;;;;8.80;5.50;;;;;;;27.72;72.97;101146.98;107212;1245;59202;-73
2023/07/17 06:55:09;;;;;;;12.50;5.60;;;;;;;27.68;71.42;101147.30;107279;1245;63281;-72
2023/07/17 06:57:37;;;;;;;9.80;5.40;;;;;;;27.60;72.08;101143.95;107305;1245;72246;-73
2023/07/17 07:00:08;;;;;;;7.20;4.30;;;;;;;27.72;71.60;101142.52;107200;1245;69049;-73
2023/07/17 07:02:37;;;;;;;6.20;5.00;;;;;;;27.93;71.44;101142.09;107330;1246;74965;-74
2023/07/17 07:05:08;;;;;;;8.90;5.10;;;;;;;27.92;71.47;101139.59;107310;1252;58191;-73
2023/07/17 07:07:37;;;;;;;10.50;5.60;;;;;;;27.94;72.49;101136.59;107329;1244;58996;-71
2023/07/17 07:10:07;;;;;;;11.50;5.30;;;;;;;27.82;72.58;101134.71;107253;1244;64293;-71
2023/07/17 07:12:36;;;;;;;9.30;4.90;;;;;;;27.83;72.80;101133.05;107260;1245;61811;-73
2023/07/17 07:15:07;;;;;;;9.90;5.60;;;;;;;27.93;72.11;101131.93;107275;1255;69663;-71
2023/07/17 07:17:36;;;;;;;8.40;5.10;;;;;;;27.89;72.34;101129.88;107287;1251;73028;-73
2023/07/17 07:20:06;;;;;;;10.20;5.60;;;;;;;27.91;72.06;101125.20;107277;1245;60877;-72
2023/07/17 07:22:35;;;;;;;9.70;5.10;;;;;;;28.03;71.93;101124.60;107218;1245;57521;-72
2023/07/17 07:25:05;;;;;;;10.20;4.80;;;;;;;28.15;71.95;101126.10;107089;1246;64816;-71
2023/07/17 07:27:33;;;;;;;11.00;5.60;;;;;;;28.25;71.08;101130.00;107259;1244;62776;-71
2023/07/17 07:30:04;;;;;;;11.10;5.40;;;;;;;28.44;71.59;101127.54;107347;1255;60733;-71
2023/07/17 07:32:33;;;;;;;8.80;5.30;;;;;;;28.59;70.45;101123.23;107282;1255;63122;-71
2023/07/17 07:35:02;;;;;;;10.70;5.10;;;;;;;28.65;70.27;101122.14;107286;1253;59025;-71
2023/07/17 07:37:31;;;;;;;11.20;4.70;;;;;;;28.73;69.60;101121.42;107295;1244;60695;-71
2023/07/17 07:40:00;;;;;;;10.70;5.30;;;;;;;28.72;69.69;101122.25;107312;1244;64895;-71
2023/07/17 07:42:29;;;;;;;8.40;5.20;;;;;;;28.81;69.16;101119.14;107146;1247;72485;-71
2023/07/17 07:44:58;;;;;;;13.80;5.30;;;;;;;28.89;68.97;101120.73;107257;1250;70438;-72
2023/07/17 07:47:30;;;;;;;10.70;5.50;;;;;;;29.02;68.71;101117.08;107311;1245;75115;-72
2023/07/17 07:50:00;;;;;;;11.10;5.50;;;;;;;29.21;68.46;101117.52;107286;1244;61150;-72
2023/07/17 07:52:30;;;;;;;9.70;5.20;;;;;;;29.26;68.73;101115.89;107292;1245;59029;-72
2023/07/17 07:54:59;;;;;;;14.60;5.40;;;;;;;29.29;67.05;101112.55;107163;1245;73221;-71
2023/07/17 07:57:29;;;;;;;12.10;5.70;;;;;;;29.31;66.98;101112.98;107140;1248;71802;-73
2023/07/17 07:59:58;;;;;;;16.50;6.00;;;;;;;29.47;66.83;101108.62;107287;1256;70204;-73
2023/07/17 08:02:27;;;;;;;13.80;5.10;;;;;;;29.59;66.89;101108.12;107291;1245;73384;-72
2023/07/17 08:04:56;;;;;;;9.00;5.20;;;;;;;29.68;66.01;101108.61;107304;1253;59086;-71
2023/07/17 08:07:25;;;;;;;11.70;5.70;;;;;;;29.81;66.56;101105.59;107316;1256;60862;-72
2023/07/17 08:09:55;;;;;;;8.80;5.20;;;;;;;29.80;66.29;101108.83;107185;1244;73294;-73
2023/07/17 08:12:25;;;;;;;6.60;4.50;;;;;;;30.00;66.04;101106.77;107211;1248;62509;-74
2023/07/17 08:14:56;;;;;;;10.10;5.40;;;;;;;30.06;64.86;101103.65;106970;1252;70877;-72
2023/07/17 08:17:26;;;;;;;8.00;5.10;;;;;;;30.13;64.59;101105.47;107001;1251;63772;-72
2023/07/17 08:19:55;;;;;;;7.60;4.30;;;;;;;30.23;64.68;101104.70;107285;1253;58925;-72
2023/07/17 08:22:24;;;;;;;11.60;4.70;;;;;;;30.21;64.83;101100.60;107270;1255;58935;-73
2023/07/17 08:24:53;;;;;;;9.90;4.90;;;;;;;30.29;64.47;101102.63;107282;1245;63840;-72
2023/07/17 08:27:22;;;;;;;7.60;4.40;;;;;;;30.06;64.55;101103.52;107283;1245;60869;-73
2023/07/17 08:29:51;;;;;;;10.00;5.10;;;;;;;30.19;64.84;101101.73;107352;1245;59464;-72
2023/07/17 08:32:20;;;;;;;9.30;5.20;;;;;;;30.22;63.39;101099.77;107281;1244;63612;-72
